Time;durP1;ratioP1;P1;durP2;ratioP2;P2;SDS_P1;SDS_P2;PMS_P1;PMS_P2;Temp;Humidity;BMP_temperature;BMP_pressure;BME280_temperature;BME280_humidity;BME280_pressure;Samples;Min_cycle;Max_cycle;Signal;HPM_P1;HPM_P2
2022/12/10 00:01:45;;;;;;;43.97;22.65;;;;;;;;;;5010915;28;20535;-65
2022/12/10 00:04:11;;;;;;;39.08;20.95;;;;;;;;;;5010630;28;20037;-67
2022/12/10 00:06:38;;;;;;;39.03;22.50;;;;;;;;;;5012030;28;20030;-66
2022/12/10 00:09:05;;;;;;;39.22;21.33;;;;;;;;;;5012264;28;20028;-67
2022/12/10 00:11:31;;;;;;;39.95;21.38;;;;;;;;;;5012053;28;20033;-65
2022/12/10 00:13:58;;;;;;;40.45;21.75;;;;;;;;;;5011918;28;20426;-67
2022/12/10 00:16:24;;;;;;;71.85;36.55;;;;;;;;;;5012258;28;20076;-66
2022/12/10 00:18:50;;;;;;;38.38;22.08;;;;;;;;;;5011948;28;20029;-65
2022/12/10 00:21:20;;;;;;;36.67;21.17;;;;;;;;;;5011898;28;20041;-65
2022/12/10 00:23:46;;;;;;;37.95;19.83;;;;;;;;;;5010329;28;20076;-66
2022/12/10 00:26:19;;;;;;;38.55;22.10;;;;;;;;;;5011914;28;20088;-66
2022/12/10 00:28:46;;;;;;;39.05;22.17;;;;;;;;;;5012085;28;20033;-66
2022/12/10 00:31:14;;;;;;;37.22;22.38;;;;;;;;;;5012053;28;20033;-65
2022/12/10 00:33:40;;;;;;;38.28;21.30;;;;;;;;;;5010197;28;20084;-67
2022/12/10 00:36:08;;;;;;;38.85;20.58;;;;;;;;;;5010470;28;20037;-67
2022/12/10 00:38:34;;;;;;;42.57;21.53;;;;;;;;;;5011587;28;20022;-66
2022/12/10 00:41:01;;;;;;;37.53;21.25;;;;;;;;;;5015302;28;20283;-66
2022/12/10 00:43:27;;;;;;;42.70;21.98;;;;;;;;;;5011812;28;20037;-66
2022/12/10 00:45:54;;;;;;;37.17;20.90;;;;;;;;;;5011627;28;20114;-67
2022/12/10 00:48:20;;;;;;;41.08;22.10;;;;;;;;;;5009690;28;20088;-66
2022/12/10 00:50:55;;;;;;;35.60;21.00;;;;;;;;;;5011396;28;20032;-67
2022/12/10 00:53:21;;;;;;;40.20;21.65;;;;;;;;;;5010913;28;20041;-66
2022/12/10 00:55:47;;;;;;;34.60;19.83;;;;;;;;;;5011523;28;20026;-66
2022/12/10 00:58:13;;;;;;;29.67;15.77;;;;;;;;;;5011379;28;20017;-66
2022/12/10 01:00:39;;;;;;;29.08;15.10;;;;;;;;;;5011496;28;20033;-66
2022/12/10 01:03:05;;;;;;;30.15;15.73;;;;;;;;;;5011161;28;20022;-65
2022/12/10 01:05:31;;;;;;;33.38;16.67;;;;;;;;;;5011606;28;20109;-66
2022/12/10 01:07:57;;;;;;;34.88;18.80;;;;;;;;;;5009983;28;20030;-66
2022/12/10 01:10:23;;;;;;;39.35;20.52;;;;;;;;;;5010039;28;20030;-67
2022/12/10 01:12:49;;;;;;;34.88;19.25;;;;;;;;;;5011335;28;20113;-66
2022/12/10 01:15:15;;;;;;;35.08;19.02;;;;;;;;;;5011206;28;20387;-66
2022/12/10 01:17:41;;;;;;;34.83;19.55;;;;;;;;;;5010027;28;20022;-65
2022/12/10 01:20:07;;;;;;;35.63;20.20;;;;;;;;;;5011380;28;20028;-67
2022/12/10 01:22:33;;;;;;;35.67;19.90;;;;;;;;;;5011511;28;20037;-66
2022/12/10 01:24:59;;;;;;;37.15;20.10;;;;;;;;;;5011262;28;20034;-65
2022/12/10 01:27:26;;;;;;;35.15;19.77;;;;;;;;;;5011448;28;20029;-64
2022/12/10 01:29:53;;;;;;;34.50;19.17;;;;;;;;;;5009997;28;20026;-65
2022/12/10 01:32:19;;;;;;;30.40;17.88;;;;;;;;;;5010188;28;20030;-66
2022/12/10 01:34:45;;;;;;;31.70;17.85;;;;;;;;;;5011578;28;20339;-65
2022/12/10 01:37:11;;;;;;;25.38;13.77;;;;;;;;;;5009900;28;20022;-65
2022/12/10 01:39:37;;;;;;;31.55;16.60;;;;;;;;;;5010995;28;20069;-65
2022/12/10 01:42:03;;;;;;;28.60;17.38;;;;;;;;;;5009944;28;20022;-65
2022/12/10 01:44:29;;;;;;;34.17;18.90;;;;;;;;;;5010446;28;20034;-65
2022/12/10 01:46:56;;;;;;;33.45;19.27;;;;;;;;;;5009617;28;20025;-64
2022/12/10 01:49:22;;;;;;;42.10;21.00;;;;;;;;;;5010977;28;20029;-65
2022/12/10 01:51:49;;;;;;;33.63;19.98;;;;;;;;;;5010763;28;20390;-65
2022/12/10 01:54:32;;;;;;;34.10;19.15;;;;;;;;;;5009418;28;20026;-65
2022/12/10 01:56:59;;;;;;;33.78;18.48;;;;;;;;;;5009959;28;20045;-65
2022/12/10 01:59:26;;;;;;;34.08;18.98;;;;;;;;;;5012453;28;20033;-65
2022/12/10 02:01:58;;;;;;;33.15;18.25;;;;;;;;;;5015146;28;20026;-65
2022/12/10 02:04:29;;;;;;;28.92;16.45;;;;;;;;;;5014630;28;20438;-65
2022/12/10 02:06:55;;;;;;;28.98;14.25;;;;;;;;;;5014741;28;20062;-66
2022/12/10 02:09:33;;;;;;;62.67;36.45;;;;;;;;;;5014253;28;20080;-66
2022/12/10 02:12:02;;;;;;;28.38;14.35;;;;;;;;;;5013186;28;20117;-66
2022/12/10 02:14:42;;;;;;;43.75;25.88;;;;;;;;;;5013103;28;20505;-66
2022/12/10 02:17:16;;;;;;;26.35;15.63;;;;;;;;;;5012972;28;20033;-67
2022/12/10 02:19:57;;;;;;;25.13;13.70;;;;;;;;;;5013098;28;20057;-65
2022/12/10 02:22:24;;;;;;;36.35;20.80;;;;;;;;;;5014529;28;20030;-65
2022/12/10 02:24:51;;;;;;;34.28;20.20;;;;;;;;;;5012680;28;20034;-63
2022/12/10 02:27:17;;;;;;;38.13;21.98;;;;;;;;;;5014112;28;20101;-66
2022/12/10 02:29:44;;;;;;;39.45;23.02;;;;;;;;;;5014182;28;20111;-66
2022/12/10 02:32:28;;;;;;;31.92;18.35;;;;;;;;;;5012872;28;20025;-66
2022/12/10 02:34:58;;;;;;;26.75;13.30;;;;;;;;;;5013759;28;20107;-66
2022/12/10 02:37:29;;;;;;;28.30;15.98;;;;;;;;;;5014040;28;20105;-66
2022/12/10 02:39:56;;;;;;;31.38;16.63;;;;;;;;;;5014051;28;20034;-66
2022/12/10 02:42:23;;;;;;;30.20;17.40;;;;;;;;;;5012519;28;20044;-66
2022/12/10 02:44:50;;;;;;;28.63;15.88;;;;;;;;;;5013759;28;20099;-65
2022/12/10 02:47:17;;;;;;;30.73;14.07;;;;;;;;;;5013700;28;20068;-65
2022/12/10 02:49:44;;;;;;;28.60;16.42;;;;;;;;;;5012405;28;20026;-66
2022/12/10 02:52:12;;;;;;;27.52;16.05;;;;;;;;;;5014067;28;20022;-66
2022/12/10 02:54:43;;;;;;;32.13;16.27;;;;;;;;;;5013622;28;20109;-66
2022/12/10 02:57:12;;;;;;;27.95;14.93;;;;;;;;;;5012504;28;20026;-65
2022/12/10 02:59:43;;;;;;;28.67;16.38;;;;;;;;;;5012399;28;20026;-65
2022/12/10 03:02:24;;;;;;;26.75;14.75;;;;;;;;;;5012255;28;20059;-65
2022/12/10 03:04:57;;;;;;;28.02;16.35;;;;;;;;;;5012376;28;20040;-66
2022/12/10 03:07:32;;;;;;;28.80;15.65;;;;;;;;;;5013347;28;20029;-66
2022/12/10 03:10:12;;;;;;;27.63;14.43;;;;;;;;;;5011629;28;20037;-66
2022/12/10 03:12:42;;;;;;;25.83;15.23;;;;;;;;;;5013389;28;20030;-65
2022/12/10 03:15:09;;;;;;;28.88;16.58;;;;;;;;;;5013152;28;20022;-65
2022/12/10 03:17:36;;;;;;;30.20;17.17;;;;;;;;;;5013141;28;20025;-66
2022/12/10 03:20:04;;;;;;;28.75;17.15;;;;;;;;;;5011871;28;20068;-65
2022/12/10 03:22:30;;;;;;;29.13;16.85;;;;;;;;;;5013298;28;20493;-66
2022/12/10 03:24:58;;;;;;;33.42;18.60;;;;;;;;;;5012603;28;20034;-66
2022/12/10 03:27:24;;;;;;;31.33;16.83;;;;;;;;;;5012985;28;20026;-65
2022/12/10 03:29:54;;;;;;;32.10;18.75;;;;;;;;;;5011732;28;20033;-66
2022/12/10 03:32:21;;;;;;;31.48;17.23;;;;;;;;;;5012971;28;20387;-67
2022/12/10 03:34:49;;;;;;;32.20;17.77;;;;;;;;;;5012617;28;20044;-65
2022/12/10 03:37:15;;;;;;;29.95;16.90;;;;;;;;;;5011506;28;20061;-65
2022/12/10 03:39:41;;;;;;;30.65;16.73;;;;;;;;;;5011632;28;20076;-65
2022/12/10 03:42:08;;;;;;;30.55;17.13;;;;;;;;;;5011490;28;20030;-65
2022/12/10 03:44:35;;;;;;;30.10;17.20;;;;;;;;;;5012613;28;20033;-66
2022/12/10 03:47:01;;;;;;;34.90;17.55;;;;;;;;;;5012622;28;20030;-65
2022/12/10 03:49:27;;;;;;;30.83;18.10;;;;;;;;;;5012854;28;20034;-65
2022/12/10 03:51:53;;;;;;;35.28;19.95;;;;;;;;;;5011367;28;20461;-65
2022/12/10 03:54:20;;;;;;;33.33;20.48;;;;;;;;;;5012414;28;20129;-65
2022/12/10 03:56:46;;;;;;;34.40;20.38;;;;;;;;;;5012570;28;20064;-66
2022/12/10 03:59:12;;;;;;;33.88;19.15;;;;;;;;;;5012608;28;20113;-66
2022/12/10 04:01:38;;;;;;;30.02;17.92;;;;;;;;;;5011085;28;20026;-66
2022/12/10 04:04:04;;;;;;;33.40;19.15;;;;;;;;;;5011100;28;20485;-66
2022/12/10 04:06:30;;;;;;;33.47;19.65;;;;;;;;;;5011046;28;20040;-65
2022/12/10 04:08:56;;;;;;;33.28;20.90;;;;;;;;;;5012566;28;20030;-65
2022/12/10 04:11:23;;;;;;;34.80;21.20;;;;;;;;;;5013009;28;20029;-65
2022/12/10 04:16:36;;;;;;;33.25;20.08;;;;;;;;;;4991605;28;20025;-65
2022/12/10 04:19:07;;;;;;;37.80;22.50;;;;;;;;;;5011231;28;20096;-65
2022/12/10 04:27:06;;;;;;;36.40;22.00;;;;;;;;;;5012144;28;20382;-65
2022/12/10 04:29:32;;;;;;;36.90;20.77;;;;;;;;;;5011917;28;20120;-66
2022/12/10 04:31:59;;;;;;;36.33;22.15;;;;;;;;;;5012197;28;20022;-66
2022/12/10 04:34:25;;;;;;;32.33;20.08;;;;;;;;;;5011456;28;20410;-66
2022/12/10 04:36:51;;;;;;;36.85;21.27;;;;;;;;;;5012424;28;20030;-65
2022/12/10 04:39:18;;;;;;;38.33;22.27;;;;;;;;;;5011141;28;20121;-65
2022/12/10 04:41:45;;;;;;;31.27;18.52;;;;;;;;;;5010965;28;20045;-64
2022/12/10 04:44:11;;;;;;;43.17;20.97;;;;;;;;;;5011940;28;20026;-66
2022/12/10 04:46:38;;;;;;;34.40;19.30;;;;;;;;;;5012260;28;20030;-63
2022/12/10 04:49:05;;;;;;;30.65;18.67;;;;;;;;;;5011568;28;20084;-66
2022/12/10 04:51:31;;;;;;;33.95;19.63;;;;;;;;;;5011331;28;20079;-65
2022/12/10 04:53:57;;;;;;;32.47;19.67;;;;;;;;;;5011450;28;20028;-66
2022/12/10 04:56:23;;;;;;;35.33;19.13;;;;;;;;;;5011646;28;20097;-65
2022/12/10 04:58:49;;;;;;;34.72;21.10;;;;;;;;;;5011380;28;20026;-66
2022/12/10 05:01:17;;;;;;;33.70;20.38;;;;;;;;;;5011366;28;20022;-65
2022/12/10 05:03:44;;;;;;;34.42;20.02;;;;;;;;;;5009825;28;20030;-65
2022/12/10 05:06:12;;;;;;;36.03;21.92;;;;;;;;;;5011290;28;20041;-65
2022/12/10 05:08:39;;;;;;;36.50;21.88;;;;;;;;;;5011131;28;20026;-66
2022/12/10 05:11:06;;;;;;;36.85;22.25;;;;;;;;;;5011166;28;20393;-66
2022/12/10 05:13:32;;;;;;;33.10;19.87;;;;;;;;;;5010945;28;20081;-65
2022/12/10 05:15:58;;;;;;;33.88;19.10;;;;;;;;;;5011232;28;20386;-64
2022/12/10 05:18:24;;;;;;;38.72;21.85;;;;;;;;;;5011106;28;20117;-66
2022/12/10 05:20:50;;;;;;;34.20;21.13;;;;;;;;;;5009690;28;20117;-66
2022/12/10 05:23:28;;;;;;;35.63;20.15;;;;;;;;;;5010711;28;20037;-66
2022/12/10 05:26:03;;;;;;;37.72;21.83;;;;;;;;;;5011288;28;20032;-65
2022/12/10 05:28:30;;;;;;;34.40;19.85;;;;;;;;;;5009678;28;20026;-65
2022/12/10 05:30:56;;;;;;;33.58;20.13;;;;;;;;;;5010809;28;20060;-65
2022/12/10 05:33:23;;;;;;;36.20;21.73;;;;;;;;;;5010255;28;20538;-65
2022/12/10 05:35:58;;;;;;;34.10;20.58;;;;;;;;;;5009720;28;20026;-65
2022/12/10 05:38:24;;;;;;;37.78;21.13;;;;;;;;;;5010871;28;20470;-65
2022/12/10 05:40:51;;;;;;;39.83;23.77;;;;;;;;;;5011092;28;20088;-66
2022/12/10 05:43:16;;;;;;;39.13;22.70;;;;;;;;;;5010946;28;20455;-65
2022/12/10 05:45:43;;;;;;;37.25;22.40;;;;;;;;;;5010619;28;20100;-66
2022/12/10 05:48:10;;;;;;;38.88;22.05;;;;;;;;;;5026944;23;20045;-59
2022/12/10 05:50:36;;;;;;;36.17;22.85;;;;;;;;;;5031820;28;20033;-61
2022/12/10 05:53:02;;;;;;;36.00;22.33;;;;;;;;;;5046850;28;20025;-59
2022/12/10 05:55:28;;;;;;;40.70;22.40;;;;;;;;;;5031567;28;20028;-63
2022/12/10 05:57:55;;;;;;;36.05;21.42;;;;;;;;;;5047191;28;20029;-61
2022/12/10 06:00:23;;;;;;;37.03;21.83;;;;;;;;;;5031538;28;20029;-61
2022/12/10 06:02:49;;;;;;;35.55;20.55;;;;;;;;;;5031815;28;20028;-62
2022/12/10 06:05:15;;;;;;;40.38;23.63;;;;;;;;;;5030298;28;20095;-62
2022/12/10 06:07:41;;;;;;;38.28;22.77;;;;;;;;;;5031644;28;20032;-62
2022/12/10 06:10:07;;;;;;;38.00;22.73;;;;;;;;;;5031705;28;20022;-61
2022/12/10 06:12:33;;;;;;;36.55;21.35;;;;;;;;;;5031766;28;20104;-62
2022/12/10 06:14:59;;;;;;;35.72;22.15;;;;;;;;;;5029981;28;20167;-62
2022/12/10 06:17:25;;;;;;;37.97;22.40;;;;;;;;;;5031399;28;20032;-62
2022/12/10 06:19:51;;;;;;;38.90;22.58;;;;;;;;;;5031551;28;20037;-62
2022/12/10 06:22:17;;;;;;;40.60;24.25;;;;;;;;;;5030387;28;20032;-65
2022/12/10 06:24:43;;;;;;;38.85;23.38;;;;;;;;;;5030213;28;20474;-61
2022/12/10 06:27:09;;;;;;;38.97;24.85;;;;;;;;;;5028544;28;20120;-61
2022/12/10 06:29:35;;;;;;;41.47;25.27;;;;;;;;;;5029683;28;20021;-62
2022/12/10 06:32:01;;;;;;;41.22;24.13;;;;;;;;;;5031409;28;20017;-62
2022/12/10 06:34:27;;;;;;;39.88;24.40;;;;;;;;;;5031100;28;20022;-62
2022/12/10 06:36:53;;;;;;;39.78;24.15;;;;;;;;;;5031173;28;20482;-62
2022/12/10 06:39:19;;;;;;;41.28;24.60;;;;;;;;;;5031484;28;20032;-63
2022/12/10 06:41:45;;;;;;;40.05;23.77;;;;;;;;;;5031360;28;20028;-63
2022/12/10 06:44:11;;;;;;;44.22;25.75;;;;;;;;;;5030835;28;20052;-63
2022/12/10 06:46:37;;;;;;;41.15;23.63;;;;;;;;;;5033765;28;20028;-62
2022/12/10 06:49:04;;;;;;;42.10;23.48;;;;;;;;;;5033266;28;20044;-62
2022/12/10 06:51:30;;;;;;;40.70;25.23;;;;;;;;;;5034687;28;20059;-63
2022/12/10 06:53:55;;;;;;;45.60;26.35;;;;;;;;;;5033076;28;20112;-64
2022/12/10 06:56:22;;;;;;;37.83;21.80;;;;;;;;;;5033395;28;20441;-64
2022/12/10 06:58:48;;;;;;;46.22;24.67;;;;;;;;;;5034597;28;20022;-63
2022/12/10 07:01:16;;;;;;;45.50;25.63;;;;;;;;;;5034212;28;20036;-61
2022/12/10 07:03:42;;;;;;;42.35;25.40;;;;;;;;;;5034464;28;20030;-64
2022/12/10 07:06:09;;;;;;;41.40;24.77;;;;;;;;;;5034418;28;20426;-59
2022/12/10 07:08:35;;;;;;;44.80;27.08;;;;;;;;;;5034423;28;20104;-64
2022/12/10 07:11:05;;;;;;;43.85;25.05;;;;;;;;;;5033053;28;20030;-63
2022/12/10 07:13:31;;;;;;;40.33;24.67;;;;;;;;;;5034053;28;20025;-64
2022/12/10 07:15:57;;;;;;;42.83;25.23;;;;;;;;;;5034230;28;20105;-63
2022/12/10 07:18:24;;;;;;;41.67;25.42;;;;;;;;;;5033156;28;20029;-64
2022/12/10 07:20:50;;;;;;;41.35;22.90;;;;;;;;;;5034291;28;20045;-64
2022/12/10 07:23:16;;;;;;;40.67;24.52;;;;;;;;;;5034063;28;20393;-63
2022/12/10 07:25:42;;;;;;;43.10;23.55;;;;;;;;;;5032896;28;20072;-63
2022/12/10 07:28:08;;;;;;;39.05;21.85;;;;;;;;;;5033860;28;20432;-63
2022/12/10 07:30:34;;;;;;;39.03;23.05;;;;;;;;;;5032755;28;20028;-62
2022/12/10 07:33:00;;;;;;;35.45;21.35;;;;;;;;;;5033930;28;20025;-63
2022/12/10 07:35:26;;;;;;;37.15;23.33;;;;;;;;;;5032565;28;20112;-62
2022/12/10 07:37:52;;;;;;;43.38;24.20;;;;;;;;;;5033620;28;20166;-63
2022/12/10 07:40:18;;;;;;;39.80;22.85;;;;;;;;;;5033833;28;20032;-61
2022/12/10 07:42:43;;;;;;;39.10;23.33;;;;;;;;;;5032444;28;20393;-64
2022/12/10 07:45:10;;;;;;;40.55;22.83;;;;;;;;;;5032297;28;20049;-63
2022/12/10 07:47:37;;;;;;;43.50;23.70;;;;;;;;;;5033606;28;20450;-60
2022/12/10 07:50:03;;;;;;;41.50;24.05;;;;;;;;;;5033646;28;20032;-58
2022/12/10 07:52:29;;;;;;;41.28;23.77;;;;;;;;;;5032348;28;20122;-58
2022/12/10 07:54:55;;;;;;;42.15;24.38;;;;;;;;;;5033233;28;20085;-59
2022/12/10 07:57:21;;;;;;;45.47;24.95;;;;;;;;;;5033303;28;20123;-62
2022/12/10 07:59:47;;;;;;;44.90;25.77;;;;;;;;;;5033365;28;20037;-61
2022/12/10 08:02:13;;;;;;;42.10;22.55;;;;;;;;;;5033539;28;20025;-64
2022/12/10 08:04:39;;;;;;;41.83;24.60;;;;;;;;;;5033235;28;20539;-63
2022/12/10 08:07:05;;;;;;;42.20;23.55;;;;;;;;;;5032229;28;20029;-62
2022/12/10 08:09:31;;;;;;;41.38;22.77;;;;;;;;;;5033234;28;20033;-62
2022/12/10 08:11:57;;;;;;;40.20;23.15;;;;;;;;;;5033094;28;20036;-55
2022/12/10 08:14:23;;;;;;;43.17;23.15;;;;;;;;;;5032787;28;20052;-61
2022/12/10 08:16:49;;;;;;;40.35;23.33;;;;;;;;;;5031784;28;20021;-63
2022/12/10 08:19:15;;;;;;;42.97;23.90;;;;;;;;;;5032793;28;20056;-65
2022/12/10 08:21:42;;;;;;;42.47;24.55;;;;;;;;;;5030844;28;20121;-61
2022/12/10 08:24:08;;;;;;;45.20;24.73;;;;;;;;;;5032164;28;20018;-59
2022/12/10 08:26:35;;;;;;;43.03;22.65;;;;;;;;;;5032197;28;20087;-58
2022/12/10 08:29:01;;;;;;;45.28;24.60;;;;;;;;;;5032052;28;20112;-57
2022/12/10 08:31:27;;;;;;;42.90;25.40;;;;;;;;;;5031904;28;20030;-61
2022/12/10 08:33:54;;;;;;;43.70;24.90;;;;;;;;;;5030635;28;20479;-62
2022/12/10 08:36:20;;;;;;;42.65;23.55;;;;;;;;;;5032185;28;20026;-60
2022/12/10 08:38:46;;;;;;;41.05;23.90;;;;;;;;;;5032541;28;20021;-62
2022/12/10 08:41:15;;;;;;;41.63;24.35;;;;;;;;;;5032571;28;20033;-60
2022/12/10 08:43:41;;;;;;;42.65;24.05;;;;;;;;;;5032134;28;20036;-63
2022/12/10 08:46:07;;;;;;;42.28;24.02;;;;;;;;;;5032577;28;20033;-61
2022/12/10 08:48:34;;;;;;;42.05;23.40;;;;;;;;;;5032536;28;20152;-63
2022/12/10 08:51:00;;;;;;;42.85;25.83;;;;;;;;;;5031175;28;20037;-62
2022/12/10 08:53:26;;;;;;;48.25;24.75;;;;;;;;;;5030982;28;20029;-62
2022/12/10 08:55:53;;;;;;;43.95;24.38;;;;;;;;;;5031466;28;20477;-63
2022/12/10 08:58:19;;;;;;;40.92;24.88;;;;;;;;;;5031630;28;20087;-64
2022/12/10 09:00:46;;;;;;;40.00;23.10;;;;;;;;;;5032356;28;20021;-63
2022/12/10 09:03:12;;;;;;;43.15;23.95;;;;;;;;;;5031848;28;20032;-63
2022/12/10 09:05:38;;;;;;;46.47;25.15;;;;;;;;;;5032241;28;20053;-62
2022/12/10 09:08:04;;;;;;;43.60;23.65;;;;;;;;;;5031947;28;20083;-61
2022/12/10 09:10:30;;;;;;;41.40;24.33;;;;;;;;;;5030856;28;20466;-63
2022/12/10 09:12:56;;;;;;;44.72;26.00;;;;;;;;;;5032013;28;20027;-64
2022/12/10 09:15:22;;;;;;;44.90;24.88;;;;;;;;;;5032161;28;20026;-60
2022/12/10 09:17:48;;;;;;;42.15;26.10;;;;;;;;;;5032100;28;20026;-61
2022/12/10 09:20:14;;;;;;;42.15;24.25;;;;;;;;;;5031909;28;20490;-63
2022/12/10 09:22:40;;;;;;;42.80;24.50;;;;;;;;;;5031251;28;20524;-64
2022/12/10 09:25:07;;;;;;;43.53;24.05;;;;;;;;;;5030476;28;20169;-59
2022/12/10 09:27:33;;;;;;;40.75;24.58;;;;;;;;;;5031902;28;20514;-63
2022/12/10 09:29:59;;;;;;;41.72;23.27;;;;;;;;;;5031677;28;20106;-59
2022/12/10 09:32:25;;;;;;;39.30;22.58;;;;;;;;;;5031719;28;20056;-59
2022/12/10 09:34:52;;;;;;;44.50;24.20;;;;;;;;;;5031358;28;20018;-61
2022/12/10 09:37:18;;;;;;;37.97;23.25;;;;;;;;;;5030305;28;20026;-58
2022/12/10 09:39:44;;;;;;;44.58;26.63;;;;;;;;;;5030287;28;20235;-61
2022/12/10 09:42:39;;;;;;;40.65;22.60;;;;;;;;;;5031837;28;20076;-63
2022/12/10 09:45:12;;;;;;;38.70;22.98;;;;;;;;;;5026648;28;20125;-61
2022/12/10 09:47:46;;;;;;;38.67;23.65;;;;;;;;;;5031261;28;20029;-62
2022/12/10 09:50:12;;;;;;;38.13;23.77;;;;;;;;;;5031532;28;20025;-61
2022/12/10 09:52:41;;;;;;;36.10;20.23;;;;;;;;;;5039926;28;20029;-62
2022/12/10 09:55:23;;;;;;;35.83;21.10;;;;;;;;;;5041613;28;20478;-63
2022/12/10 09:57:51;;;;;;;36.03;20.60;;;;;;;;;;5034208;28;20026;-63
2022/12/10 10:00:20;;;;;;;35.22;20.38;;;;;;;;;;5030235;28;20021;-60
2022/12/10 10:02:46;;;;;;;47.42;21.50;;;;;;;;;;5030506;28;20398;-64
2022/12/10 10:05:23;;;;;;;35.97;21.17;;;;;;;;;;5031354;28;20022;-63
2022/12/10 10:07:51;;;;;;;34.13;20.48;;;;;;;;;;5031600;28;20025;-62
2022/12/10 10:10:35;;;;;;;31.10;19.73;;;;;;;;;;5031693;28;20057;-63
2022/12/10 10:13:10;;;;;;;33.90;19.42;;;;;;;;;;5031220;28;20022;-61
2022/12/10 10:15:38;;;;;;;36.13;20.10;;;;;;;;;;5031128;28;20084;-61
2022/12/10 10:18:13;;;;;;;37.00;21.20;;;;;;;;;;5030899;28;20052;-59
2022/12/10 10:20:39;;;;;;;34.58;20.20;;;;;;;;;;5033774;28;20038;-62
2022/12/10 10:23:06;;;;;;;37.05;20.58;;;;;;;;;;5034380;28;20109;-64
2022/12/10 10:25:32;;;;;;;35.30;20.25;;;;;;;;;;5034716;28;20037;-59
2022/12/10 10:27:58;;;;;;;38.58;22.20;;;;;;;;;;5035043;28;20148;-60
2022/12/10 10:30:24;;;;;;;35.67;21.45;;;;;;;;;;5034662;28;20037;-61
2022/12/10 10:32:52;;;;;;;38.13;20.40;;;;;;;;;;5033880;28;20636;-59
2022/12/10 10:35:21;;;;;;;41.50;25.07;;;;;;;;;;5034742;28;20021;-61
2022/12/10 10:37:47;;;;;;;36.78;22.05;;;;;;;;;;5031286;28;20018;-62
2022/12/10 10:40:23;;;;;;;40.65;23.40;;;;;;;;;;5034264;28;20044;-62
2022/12/10 10:42:49;;;;;;;36.58;22.55;;;;;;;;;;5035005;28;20397;-60
2022/12/10 10:45:33;;;;;;;38.70;22.40;;;;;;;;;;5034697;28;20035;-60
2022/12/10 10:48:12;;;;;;;42.28;24.52;;;;;;;;;;5037216;28;20025;-59
2022/12/10 10:50:38;;;;;;;;;;;;;;;;;;5031516;28;20115;-62
2022/12/10 10:53:20;;;;;;;38.00;22.67;;;;;;;;;;5030951;28;19940;-61
2022/12/10 10:55:46;;;;;;;42.60;23.33;;;;;;;;;;5034241;28;20021;-60
2022/12/10 10:58:22;;;;;;;43.53;23.02;;;;;;;;;;5034083;28;20014;-61
2022/12/10 11:01:02;;;;;;;41.25;23.25;;;;;;;;;;5034100;28;20037;-63
2022/12/10 11:03:29;;;;;;;42.92;25.85;;;;;;;;;;5033916;28;20293;-60
2022/12/10 11:05:56;;;;;;;39.90;23.80;;;;;;;;;;5021283;28;20180;-60
2022/12/10 11:08:24;;;;;;;39.10;23.10;;;;;;;;;;5014207;28;20113;-60
2022/12/10 11:10:52;;;;;;;39.67;22.95;;;;;;;;;;5045726;28;20084;-58
2022/12/10 11:13:21;;;;;;;43.75;23.83;;;;;;;;;;5013739;28;20032;-59
2022/12/10 11:15:54;;;;;;;48.33;23.90;;;;;;;;;;5014089;28;20478;-59
2022/12/10 11:18:26;;;;;;;40.65;25.45;;;;;;;;;;5034286;28;20386;-62
2022/12/10 11:21:11;;;;;;;45.22;25.33;;;;;;;;;;5036839;28;20031;-61
2022/12/10 11:23:41;;;;;;;46.50;24.02;;;;;;;;;;5032151;28;20039;-61
2022/12/10 11:26:07;;;;;;;44.00;24.63;;;;;;;;;;5038815;28;20027;-63
2022/12/10 11:28:36;;;;;;;49.80;27.00;;;;;;;;;;5051515;28;20125;-61
2022/12/10 11:31:14;;;;;;;47.35;26.00;;;;;;;;;;5032484;28;20049;-62
2022/12/10 11:33:42;;;;;;;45.88;26.48;;;;;;;;;;5033936;28;20061;-62
2022/12/10 11:36:11;;;;;;;44.38;27.13;;;;;;;;;;5035193;28;20071;-61
2022/12/10 11:38:37;;;;;;;41.97;24.75;;;;;;;;;;5044740;28;20366;-62
2022/12/10 11:41:26;;;;;;;43.80;25.88;;;;;;;;;;5046432;28;20029;-63
2022/12/10 11:44:07;;;;;;;42.00;26.15;;;;;;;;;;5032797;28;20103;-61
2022/12/10 11:46:51;;;;;;;42.72;25.63;;;;;;;;;;5031604;28;20029;-62
2022/12/10 11:49:36;;;;;;;45.92;26.08;;;;;;;;;;5053741;23;20119;-68
2022/12/10 11:52:07;;;;;;;49.78;29.15;;;;;;;;;;5051602;28;20036;-69
2022/12/10 11:54:39;;;;;;;47.85;27.75;;;;;;;;;;5052161;28;20021;-68
2022/12/10 11:57:31;;;;;;;56.92;31.63;;;;;;;;;;5052069;28;20028;-69
2022/12/10 12:00:09;;;;;;;51.60;29.85;;;;;;;;;;5048066;28;20033;-68
2022/12/10 12:02:35;;;;;;;50.22;28.10;;;;;;;;;;5054469;28;20033;-68
2022/12/10 12:05:13;;;;;;;51.33;28.25;;;;;;;;;;5059146;28;20032;-68
2022/12/10 12:07:43;;;;;;;54.75;29.02;;;;;;;;;;5071044;28;20057;-68
2022/12/10 12:10:15;;;;;;;52.35;29.52;;;;;;;;;;5071403;28;20033;-68
2022/12/10 12:12:56;;;;;;;55.55;31.70;;;;;;;;;;5071450;28;20563;-69
2022/12/10 12:15:42;;;;;;;55.67;29.17;;;;;;;;;;5066634;28;20032;-66
2022/12/10 12:18:17;;;;;;;64.90;32.13;;;;;;;;;;5063192;28;20515;-68
2022/12/10 12:24:19;;;;;;;65.55;35.08;;;;;;;;;;5071948;28;20078;-68
2022/12/10 12:27:08;;;;;;;69.40;36.58;;;;;;;;;;5049492;28;20032;-68
2022/12/10 12:29:42;;;;;;;64.88;33.20;;;;;;;;;;5072635;28;20020;-68
2022/12/10 12:32:19;;;;;;;58.58;32.33;;;;;;;;;;5063188;28;20123;-68
2022/12/10 12:35:05;;;;;;;60.17;33.72;;;;;;;;;;5051076;28;20033;-67
2022/12/10 12:37:42;;;;;;;61.85;33.45;;;;;;;;;;5044763;28;20500;-68
2022/12/10 12:43:47;;;;;;;55.45;32.97;;;;;;;;;;5050405;28;20447;-68
2022/12/10 12:46:20;;;;;;;60.95;32.60;;;;;;;;;;5059914;28;20370;-68
2022/12/10 12:48:52;;;;;;;64.15;35.15;;;;;;;;;;5061553;28;20055;-67
2022/12/10 12:51:21;;;;;;;59.80;31.15;;;;;;;;;;5061156;28;20048;-66
2022/12/10 12:53:47;;;;;;;65.22;36.55;;;;;;;;;;5058820;28;20504;-68
2022/12/10 12:56:16;;;;;;;59.47;31.42;;;;;;;;;;5060422;28;20385;-69
2022/12/10 12:58:48;;;;;;;59.17;33.42;;;;;;;;;;5061646;28;20032;-68
2022/12/10 13:01:25;;;;;;;63.20;33.80;;;;;;;;;;5070304;28;20484;-68
2022/12/10 13:03:51;;;;;;;62.47;35.28;;;;;;;;;;5069980;28;20034;-67
2022/12/10 13:06:22;;;;;;;60.08;32.78;;;;;;;;;;5070135;28;20074;-68
2022/12/10 13:08:58;;;;;;;62.08;28.92;;;;;;;;;;5069970;28;20056;-67
2022/12/10 13:11:35;;;;;;;61.90;30.33;;;;;;;;;;5069313;28;20124;-68
2022/12/10 13:14:04;;;;;;;58.38;32.72;;;;;;;;;;4709350;28;9999978;-66
2022/12/10 13:16:45;;;;;;;61.75;35.33;;;;;;;;;;5068404;28;20281;-68
2022/12/10 13:19:21;;;;;;;57.70;31.00;;;;;;;;;;5067070;28;20560;-69
2022/12/10 13:21:56;;;;;;;60.75;31.20;;;;;;;;;;5055393;28;20446;-68
2022/12/10 13:27:31;;;;;;;64.93;32.40;;;;;;;;;;5053631;28;20031;-68
2022/12/10 13:30:03;;;;;;;60.60;32.90;;;;;;;;;;5055564;28;20025;-68
2022/12/10 13:32:29;;;;;;;61.25;31.52;;;;;;;;;;5048575;28;20032;-65
2022/12/10 13:35:07;;;;;;;63.60;31.50;;;;;;;;;;5046879;28;20393;-68
2022/12/10 13:37:36;;;;;;;54.03;31.42;;;;;;;;;;5061181;28;20400;-68
2022/12/10 13:40:08;;;;;;;59.47;29.30;;;;;;;;;;5069286;28;20692;-67
2022/12/10 13:45:21;;;;;;;62.45;30.42;;;;;;;;;;5070920;28;20040;-67
2022/12/10 13:47:48;;;;;;;59.78;30.05;;;;;;;;;;5055635;28;20025;-68
2022/12/10 13:50:18;;;;;;;64.97;33.13;;;;;;;;;;5049988;28;20041;-68
2022/12/10 13:52:47;;;;;;;59.80;31.45;;;;;;;;;;5062701;28;20154;-67
2022/12/10 13:55:31;;;;;;;59.90;29.70;;;;;;;;;;5070025;28;20025;-68
2022/12/10 13:57:58;;;;;;;59.88;31.60;;;;;;;;;;5057359;28;20036;-69
2022/12/10 14:00:29;;;;;;;63.35;32.63;;;;;;;;;;5055870;28;20032;-65
2022/12/10 14:03:01;;;;;;;63.00;33.13;;;;;;;;;;5057994;28;20064;-68
2022/12/10 14:05:47;;;;;;;64.10;31.92;;;;;;;;;;5057354;28;20021;-68
2022/12/10 14:08:26;;;;;;;58.53;31.73;;;;;;;;;;4711591;28;9999740;-70
2022/12/10 14:10:53;;;;;;;59.45;30.70;;;;;;;;;;5074439;28;20691;-67
2022/12/10 14:13:20;;;;;;;59.97;31.65;;;;;;;;;;5073668;28;20035;-68
2022/12/10 14:15:51;;;;;;;64.85;32.92;;;;;;;;;;5074428;28;20028;-67
2022/12/10 14:18:17;;;;;;;70.57;32.40;;;;;;;;;;5074231;28;20220;-68
2022/12/10 14:20:48;;;;;;;64.22;33.70;;;;;;;;;;5069895;28;20107;-68
2022/12/10 14:23:38;;;;;;;61.92;31.75;;;;;;;;;;5058949;28;20033;-68
2022/12/10 14:26:30;;;;;;;61.15;32.85;;;;;;;;;;5074837;28;20097;-66
2022/12/10 14:28:57;;;;;;;64.47;33.47;;;;;;;;;;5067989;28;20055;-68
2022/12/10 14:31:34;;;;;;;67.90;33.72;;;;;;;;;;5060157;28;20043;-67
2022/12/10 14:34:02;;;;;;;57.58;33.75;;;;;;;;;;5053817;28;20021;-67
2022/12/10 14:36:31;;;;;;;60.20;33.22;;;;;;;;;;5062741;28;20029;-67
2022/12/10 14:38:57;;;;;;;54.00;31.00;;;;;;;;;;5065419;28;20013;-67
2022/12/10 14:41:24;;;;;;;68.65;35.13;;;;;;;;;;5072818;28;20544;-67
2022/12/10 14:43:50;;;;;;;62.70;32.35;;;;;;;;;;5074162;28;20040;-67
2022/12/10 14:46:22;;;;;;;63.78;31.92;;;;;;;;;;5059539;28;20086;-67
2022/12/10 14:48:49;;;;;;;60.55;29.70;;;;;;;;;;5055254;28;20047;-67